Città:
 IT 
 EN 
 FR 
 DE 
 ES 

Dati meteo attuali Milano

Datameteo.com - Informazione e servizi avanzati per la meteorologia,la nautica e la protezione civile
Milano / Linate, Italy
Alba: 5:52 AM UTC1
Tramonto: 6:57 PM UTC1
 Lat: 45.42N, Lon: 9.27E
ICAO Used: LIML
Condizioni Meteo Attuali Aggiornate: 06.04.2020 alle 16:50 UTC
Quasi Sereno
Quasi Sereno
Sereno
Quasi Sereno
Temp: 20°C
Umidita': 30%
Direz/Vel. Vento: SSE 6 / KT raffiche
Pressione: 1025 hPa
Punto di rugiada: 2°C
Temperatura percepita: 19°C
Visibilitą: >10 KM (ottima)
Temperatura percepita in
presenza di vento (Wind Chill)
:
20°C
T. max (ultime 24 ore): 21°C
T. min (ultime 24 ore): 5°C


METAR ORIGINALE
LIML 061650Z 15006KT 120V180 CAVOK 20/02 Q1025 NOSIG



[ Indietro ]


Elaborazione dati by Datameteo.com - Lrc srl Copyright ©, All rights reserved.
Visualizza la versione web
©2010 Datameteo.com
weather mobile,mobile weather,meteo mobile,mobile meteo,meteo sul telefonino datameteo.com